Time;durP1;ratioP1;P1;durP2;ratioP2;P2;SDS_P1;SDS_P2;PMS_P1;PMS_P2;Temp;Humidity;BMP_temperature;BMP_pressure;BME280_temperature;BME280_humidity;BME280_pressure;Samples;Min_cycle;Max_cycle;Signal;HPM_P1;HPM_P2
2022/05/14 00:03:59;;;;;;;;;;;;;;;12.28;63.57617;102020.6;;;;-81
2022/05/14 00:09:01;;;;;;;;;;;;;;;12.31;63.84766;102021.5;;;;-80
2022/05/14 00:13:57;;;;;;;;;;;;;;;12.32;63.90625;102021.4;;;;-79
2022/05/14 00:19:09;;;;;;;;;;;;;;;12.35;64.38867;102021.6;;;;-82
2022/05/14 00:23:58;;;;;;;12.8;3.2;;;;;;;;;;;;;-81
2022/05/14 00:24:08;;;;;;;;;;;;;;;12.35;65.36035;102021;;;;-81
2022/05/14 00:28:57;;;;;;;;;;;;;;;12.4;64.83203;102029.6;;;;-81
2022/05/14 00:33:57;;;;;;;;;;;;;;;12.39;63.99414;102017.2;;;;-80
2022/05/14 00:38:57;;;;;;;;;;;;;;;12.38;63.37793;102014.9;;;;-79
2022/05/14 00:43:58;;;;;;;;;;;;;;;12.35;62.81445;102030.3;;;;-81
2022/05/14 00:48:59;;;;;;;;;;;;;;;12.34;62.74609;102034.3;;;;-81
2022/05/14 00:53:59;;;;;;;12.1;2.9;;;;;;;;;;;;;-82
2022/05/14 00:54:10;;;;;;;;;;;;;;;12.29;62.41699;102022.7;;;;-82
2022/05/14 00:58:59;;;;;;;;;;;;;;;12.24;62.67773;102018.9;;;;-81
2022/05/14 01:03:58;;;;;;;;;;;;;;;12.21;63.1748;102032.2;;;;-79
2022/05/14 01:09:00;;;;;;;;;;;;;;;12.15;62.47461;102031.6;;;;-79
2022/05/14 01:13:57;;;;;;;;;;;;;;;12.12;62.72656;102034;;;;-80
2022/05/14 01:18:59;;;;;;;;;;;;;;;12.06;62.27148;102036.6;;;;-80
2022/05/14 01:28:57;;;;;;;;;;;;;;;12;62.21777;102044.1;;;;-79
2022/05/14 01:33:57;;;;;;;;;;;;;;;11.99;62.2168;102042.4;;;;-81
2022/05/14 01:38:58;;;;;;;;;;;;;;;11.96;62.06836;102042.5;;;;-82
2022/05/14 01:43:57;;;;;;;;;;;;;;;11.94;62.67773;102049.8;;;;-80
2022/05/14 01:49:06;;;;;;;;;;;;;;;11.92;62.55371;102045.5;;;;-80
2022/05/14 01:53:57;;;;;;;;;;;;;;;11.9;62.47168;102048.4;;;;-81
2022/05/14 01:54:07;;;;;;;13.2;3;;;;;;;;;;;;;-81
2022/05/14 01:59:00;;;;;;;;;;;;;;;11.9;62.72852;102048.8;;;;-80
2022/05/14 02:03:58;;;;;;;;;;;;;;;11.88;62.06738;102051.5;;;;-80
2022/05/14 02:08:57;;;;;;;;;;;;;;;11.89;62.15723;102048.6;;;;-80
2022/05/14 02:13:57;;;;;;;;;;;;;;;11.88;62.15527;102054.3;;;;-80
2022/05/14 02:19:00;;;;;;;;;;;;;;;11.86;62.06445;102051.4;;;;-81
2022/05/14 02:23:59;;;;;;;;;;;;;;;11.86;62.13086;102053;;;;-81
2022/05/14 02:24:09;;;;;;;14.5;3.3;;;;;;;;;;;;;-81
2022/05/14 02:28:57;;;;;;;;;;;;;;;11.85;61.78516;102054.5;;;;-81
2022/05/14 02:33:57;;;;;;;;;;;;;;;11.84;61.3916;102057.6;;;;-79
2022/05/14 02:38:57;;;;;;;;;;;;;;;11.8;61.09668;102052.6;;;;-81
2022/05/14 02:43:57;;;;;;;;;;;;;;;11.76;61.08984;102049.5;;;;-81
2022/05/14 02:48:57;;;;;;;;;;;;;;;11.71;60.87207;102055.5;;;;-81
2022/05/14 02:54:00;;;;;;;;;;;;;;;11.66;60.74121;102064.5;;;;-80
2022/05/14 02:54:09;;;;;;;12.4;2.9;;;;;;;;;;;;;-80
2022/05/14 02:59:12;;;;;;;;;;;;;;;11.58;60.9541;102051.6;;;;-82
2022/05/14 03:03:57;;;;;;;;;;;;;;;11.52;61.0791;102053.8;;;;-81
2022/05/14 03:08:57;;;;;;;;;;;;;;;11.45;61.01465;102060.9;;;;-80
2022/05/14 03:13:57;;;;;;;;;;;;;;;11.39;61.16211;102051.8;;;;-81
2022/05/14 03:18:57;;;;;;;;;;;;;;;11.31;61.06152;102046;;;;-81
2022/05/14 03:23:57;;;;;;;;;;;;;;;11.23;61.83008;102047.7;;;;-82
2022/05/14 03:24:07;;;;;;;13.3;3.2;;;;;;;;;;;;;-82
2022/05/14 03:29:07;;;;;;;;;;;;;;;11.18;61.89063;102049.2;;;;-81
2022/05/14 03:33:57;;;;;;;;;;;;;;;11.11;62.28223;102045.2;;;;-79
2022/05/14 03:38:57;;;;;;;;;;;;;;;11.06;62.16211;102059.3;;;;-81
2022/05/14 03:43:57;;;;;;;;;;;;;;;11.03;62.12402;102060.8;;;;-81
2022/05/14 03:48:58;;;;;;;;;;;;;;;10.98;62.15137;102061.1;;;;-81
2022/05/14 03:53:57;;;;;;;;;;;;;;;10.95;62.53711;102062;;;;-81
2022/05/14 03:54:06;;;;;;;13.7;3.5;;;;;;;;;;;;;-81
2022/05/14 03:58:57;;;;;;;;;;;;;;;10.9;61.97363;102065.6;;;;-80
2022/05/14 04:03:57;;;;;;;;;;;;;;;10.87;62.03516;102079.1;;;;-82
2022/05/14 04:08:57;;;;;;;;;;;;;;;10.84;61.83008;102070.1;;;;-81
2022/05/14 04:13:57;;;;;;;;;;;;;;;10.82;61.99609;102071.2;;;;-80
2022/05/14 04:18:57;;;;;;;;;;;;;;;10.8;61.8916;102082.7;;;;-81
2022/05/14 04:23:57;;;;;;;;;;;;;;;10.78;61.93359;102089.7;;;;-81
2022/05/14 04:24:07;;;;;;;11.8;3.7;;;;;;;;;;;;;-81
2022/05/14 04:28:59;;;;;;;;;;;;;;;10.78;62.01172;102085.3;;;;-80
2022/05/14 04:33:57;;;;;;;;;;;;;;;10.76;61.86328;102090.9;;;;-81
2022/05/14 04:38:58;;;;;;;;;;;;;;;10.78;61.82227;102092.9;;;;-81
2022/05/14 04:43:57;;;;;;;;;;;;;;;10.78;62.18945;102096.9;;;;-80
2022/05/14 04:48:57;;;;;;;;;;;;;;;10.81;62.20508;102107.7;;;;-78
2022/05/14 04:53:57;;;;;;;;;;;;;;;10.82;62.15137;102109.8;;;;-80
2022/05/14 04:54:07;;;;;;;10.1;3.3;;;;;;;;;;;;;-80
2022/05/14 04:58:58;;;;;;;;;;;;;;;10.85;62.2002;102116.2;;;;-81
2022/05/14 05:03:57;;;;;;;;;;;;;;;10.91;62.06348;102122.8;;;;-80
2022/05/14 05:09:00;;;;;;;;;;;;;;;10.96;62.62793;102120;;;;-79
2022/05/14 05:13:57;;;;;;;;;;;;;;;11.02;62.46875;102124.7;;;;-80
2022/05/14 05:18:57;;;;;;;;;;;;;;;11.08;62.12109;102125;;;;-81
2022/05/14 05:23:57;;;;;;;;;;;;;;;11.16;61.81934;102127.4;;;;-80
2022/05/14 05:24:08;;;;;;;12.4;3.3;;;;;;;;;;;;;-80
2022/05/14 05:28:57;;;;;;;;;;;;;;;11.29;61.61621;102130.3;;;;-81
2022/05/14 05:33:57;;;;;;;;;;;;;;;11.58;61.83496;102140.2;;;;-80
2022/05/14 05:38:59;;;;;;;;;;;;;;;12.1;60.52441;102146.1;;;;-81
2022/05/14 05:43:57;;;;;;;;;;;;;;;12.67;59.22754;102153.9;;;;-80
2022/05/14 05:48:57;;;;;;;;;;;;;;;13.27;58.2998;102155.1;;;;-82
2022/05/14 05:58:57;;;;;;;;;;;;;;;14.34;56.67773;102160.2;;;;-79
2022/05/14 06:03:57;;;;;;;;;;;;;;;14.88;55.85742;102166.6;;;;-81
2022/05/14 06:09:00;;;;;;;;;;;;;;;15.39;55.22363;102161.8;;;;-80
2022/05/14 06:13:58;;;;;;;;;;;;;;;15.87;54.67578;102172.1;;;;-80
2022/05/14 06:18:57;;;;;;;;;;;;;;;16.33;54.34766;102171.3;;;;-80
2022/05/14 06:23:58;;;;;;;;;;;;;;;16.77;54.19824;102172.1;;;;-81
2022/05/14 06:24:10;;;;;;;12.3;3.6;;;;;;;;;;;;;-81
2022/05/14 06:28:59;;;;;;;;;;;;;;;17.09;53.71582;102175.4;;;;-82
2022/05/14 06:33:59;;;;;;;;;;;;;;;17.46;53.45508;102177.6;;;;-82
2022/05/14 06:38:57;;;;;;;;;;;;;;;17.9;52.78223;102194.6;;;;-80
2022/05/14 06:43:57;;;;;;;;;;;;;;;18.3;52.35449;102189.5;;;;-82
2022/05/14 06:48:57;;;;;;;;;;;;;;;18.69;51.7168;102194.1;;;;-79
2022/05/14 06:54:03;;;;;;;;;;;;;;;19.08;51.0918;102198.2;;;;-82
2022/05/14 06:54:14;;;;;;;14.1;3.7;;;;;;;;;;;;;-82
2022/05/14 06:58:58;;;;;;;;;;;;;;;19.4;50.64941;102202;;;;-82
2022/05/14 07:09:00;;;;;;;;;;;;;;;20.12;49.76172;102205.8;;;;-80
2022/05/14 07:14:02;;;;;;;;;;;;;;;20.48;49.18457;102209;;;;-82
2022/05/14 07:19:12;;;;;;;;;;;;;;;20.8;48.88965;102212.4;;;;-80
2022/05/14 07:23:57;;;;;;;;;;;;;;;21.12;48.59277;102216.1;;;;-82
2022/05/14 07:24:16;;;;;;;12.6;3.5;;;;;;;;;;;;;-80
2022/05/14 07:28:58;;;;;;;;;;;;;;;21.45;48.10156;102217.6;;;;-79
2022/05/14 07:33:58;;;;;;;;;;;;;;;21.76;47.96387;102217.2;;;;-81
2022/05/14 07:38:58;;;;;;;;;;;;;;;22.06;47.18164;102216.9;;;;-75
2022/05/14 07:44:01;;;;;;;;;;;;;;;22.34;46.75098;102212.8;;;;-77
2022/05/14 07:49:04;;;;;;;;;;;;;;;22.63;46.09375;102225.8;;;;-76
2022/05/14 07:53:57;;;;;;;;;;;;;;;22.95;45.64258;102222.8;;;;-76
2022/05/14 07:54:20;;;;;;;11.2;2.9;;;;;;;;;;;;;-76
2022/05/14 07:58:57;;;;;;;;;;;;;;;23.27;44.59277;102221.4;;;;-77
2022/05/14 08:03:57;;;;;;;;;;;;;;;23.59;43.94531;102215.1;;;;-75
2022/05/14 08:08:57;;;;;;;;;;;;;;;23.87;43.7998;102226;;;;-75
2022/05/14 08:13:58;;;;;;;;;;;;;;;24.18;43.29883;102212;;;;-75
2022/05/14 08:18:57;;;;;;;;;;;;;;;24.54;42.79102;102214.2;;;;-76
2022/05/14 08:24:38;;;;;;;8.9;2.9;;;;;;;;;;;;;-76
2022/05/14 08:29:07;;;;;;;;;;;;;;;25.03;41.46191;102220.4;;;;-76
2022/05/14 08:33:57;;;;;;;;;;;;;;;24.67;41.27734;102224.1;;;;-76
2022/05/14 08:38:58;;;;;;;;;;;;;;;24.32;42.28516;102216.3;;;;-76
2022/05/14 08:44:01;;;;;;;;;;;;;;;24.24;42.6123;102226;;;;-76
2022/05/14 08:48:59;;;;;;;;;;;;;;;24.51;42.34961;102229.5;;;;-76
2022/05/14 08:53:58;;;;;;;;;;;;;;;24.86;41.50391;102224.2;;;;-76
2022/05/14 08:54:24;;;;;;;11.2;2.4;;;;;;;;;;;;;-77
2022/05/14 08:59:07;;;;;;;;;;;;;;;25.2;41.01465;102232.3;;;;-76
2022/05/14 09:03:58;;;;;;;;;;;;;;;25.57;40.5166;102224;;;;-76
2022/05/14 09:08:59;;;;;;;;;;;;;;;25.89;40.02246;102226.6;;;;-76
2022/05/14 09:14:03;;;;;;;;;;;;;;;26.21;39.43555;102235.3;;;;-77
2022/05/14 09:18:59;;;;;;;;;;;;;;;26.51;38.89355;102227.5;;;;-77
2022/05/14 09:23:58;;;;;;;;;;;;;;;26.8;38.5;102234.7;;;;-76
2022/05/14 09:24:30;;;;;;;12.7;2.8;;;;;;;;;;;;;-77
2022/05/14 09:29:01;;;;;;;;;;;;;;;27.11;37.93359;102231.7;;;;-77
2022/05/14 09:34:03;;;;;;;;;;;;;;;27.38;37.12891;102238.2;;;;-76
2022/05/14 09:39:03;;;;;;;;;;;;;;;27.64;36.88281;102243.3;;;;-76
2022/05/14 09:43:59;;;;;;;;;;;;;;;27.87;36.86719;102228.7;;;;-77
2022/05/14 09:49:03;;;;;;;;;;;;;;;28.13;36.43262;102240;;;;-76
2022/05/14 09:53:57;;;;;;;;;;;;;;;28.38;35.98535;102240.4;;;;-76
2022/05/14 09:54:34;;;;;;;8.5;2.5;;;;;;;;;;;;;-76
2022/05/14 09:59:07;;;;;;;;;;;;;;;28.55;36.15137;102232.8;;;;-75
2022/05/14 10:04:10;;;;;;;;;;;;;;;28.74;36.09668;102240.4;;;;-77
2022/05/14 10:09:08;;;;;;;;;;;;;;;28.87;35.76758;102243.4;;;;-76
2022/05/14 10:14:06;;;;;;;;;;;;;;;29.17;35.40527;102242.6;;;;-76
2022/05/14 10:19:08;;;;;;;;;;;;;;;29.4;35.2832;102251.6;;;;-78
2022/05/14 10:29:01;;;;;;;;;;;;;;;29.66;35.05762;102245.6;;;;-76
2022/05/14 10:33:59;;;;;;;;;;;;;;;29.83;35.08203;102257.4;;;;-78
2022/05/14 10:38:58;;;;;;;;;;;;;;;30.02;34.37109;102250.3;;;;-76
2022/05/14 10:44:02;;;;;;;;;;;;;;;30.15;34.19336;102250.4;;;;-76
2022/05/14 10:48:59;;;;;;;;;;;;;;;30.31;34.95605;102253;;;;-76
2022/05/14 10:53:57;;;;;;;;;;;;;;;30.42;34.62305;102257.7;;;;-77
2022/05/14 10:54:41;;;;;;;11.2;2.8;;;;;;;;;;;;;-76
2022/05/14 10:59:03;;;;;;;;;;;;;;;30.32;35.13184;102250;;;;-76
2022/05/14 11:04:02;;;;;;;;;;;;;;;30.25;34.86816;102258.4;;;;-76
2022/05/14 11:09:03;;;;;;;;;;;;;;;30.16;35.1543;102255.9;;;;-76
2022/05/14 11:14:10;;;;;;;;;;;;;;;30.25;33.85938;102259.7;;;;-76
2022/05/14 11:19:00;;;;;;;;;;;;;;;30.44;34.28516;102253.9;;;;-78
2022/05/14 11:23:59;;;;;;;;;;;;;;;30.61;33.41699;102255.8;;;;-75
2022/05/14 11:24:46;;;;;;;10.3;2.7;;;;;;;;;;;;;-78
2022/05/14 11:29:04;;;;;;;;;;;;;;;30.81;33.64355;102253;;;;-77
2022/05/14 11:33:59;;;;;;;;;;;;;;;30.99;33.55176;102248.6;;;;-77
2022/05/14 11:39:08;;;;;;;;;;;;;;;31.07;31.72363;102255;;;;-77
2022/05/14 11:43:57;;;;;;;;;;;;;;;28.82;29.24902;102257.2;;;;-75
2022/05/14 11:48:58;;;;;;;;;;;;;;;27.82;30.11914;102257.6;;;;-76
2022/05/14 11:54:00;;;;;;;;;;;;;;;27.57;30.37109;102260.8;;;;-76
2022/05/14 11:54:57;;;;;;;13.1;3;;;;;;;;;;;;;-75
2022/05/14 11:59:01;;;;;;;;;;;;;;;27.51;30.20313;102248.3;;;;-76
2022/05/14 12:03:59;;;;;;;;;;;;;;;27.51;29.91113;102249.6;;;;-77
2022/05/14 12:09:23;;;;;;;;;;;;;;;27.4;30.62793;102251.8;;;;-77
2022/05/14 12:14:03;;;;;;;;;;;;;;;27.33;29.86426;102249.8;;;;-77
2022/05/14 12:18:58;;;;;;;;;;;;;;;27.36;29.87793;102256.2;;;;-75
2022/05/14 12:23:58;;;;;;;;;;;;;;;26.86;29.93848;102261.3;;;;-78
2022/05/14 12:25:04;;;;;;;13.1;3.1;;;;;;;;;;;;;-76
2022/05/14 12:28:58;;;;;;;;;;;;;;;26.88;30.11523;102254.5;;;;-77
2022/05/14 12:34:03;;;;;;;;;;;;;;;27.24;30.0459;102252.3;;;;-77
2022/05/14 12:38:57;;;;;;;;;;;;;;;27.39;30.04395;102258.7;;;;-77
2022/05/14 12:43:58;;;;;;;;;;;;;;;27.63;29.3584;102257.8;;;;-80
2022/05/14 12:48:58;;;;;;;;;;;;;;;27.7;29.23535;102256.7;;;;-76
2022/05/14 12:53:57;;;;;;;;;;;;;;;27.65;29.50098;102260.5;;;;-75
2022/05/14 12:55:03;;;;;;;10.8;2.6;;;;;;;;;;;;;-76
2022/05/14 12:58:57;;;;;;;;;;;;;;;27.6;29.56738;102253.6;;;;-75
2022/05/14 13:04:01;;;;;;;;;;;;;;;27.71;28.85059;102252.3;;;;-75
2022/05/14 13:09:02;;;;;;;;;;;;;;;28.01;28.92773;102251.2;;;;-76
2022/05/14 13:13:58;;;;;;;;;;;;;;;28.2;28.75293;102247.1;;;;-73
2022/05/14 13:18:58;;;;;;;;;;;;;;;28.07;28.62793;102247.4;;;;-75
2022/05/14 13:24:04;;;;;;;;;;;;;;;27.83;28.90527;102244.3;;;;-76
2022/05/14 13:25:03;;;;;;;13.9;3.1;;;;;;;;;;;;;-74
2022/05/14 13:28:57;;;;;;;;;;;;;;;28.01;28.76563;102240.4;;;;-76
2022/05/14 13:37:07;;;;;;;;;;;;;;;27.78;29.18262;102244.3;;;;-74
2022/05/14 13:39:02;;;;;;;;;;;;;;;27.84;28.76563;102236.2;;;;-73
2022/05/14 13:43:58;;;;;;;;;;;;;;;27.52;29.43359;102237.9;;;;-71
2022/05/14 13:48:57;;;;;;;;;;;;;;;27.59;29.16992;102232.2;;;;-73
2022/05/14 13:54:06;;;;;;;;;;;;;;;27.68;28.63867;102230.2;;;;-73
2022/05/14 13:55:09;;;;;;;10.8;2.7;;;;;;;;;;;;;-72
2022/05/14 13:59:04;;;;;;;;;;;;;;;27.66;28.68359;102238.4;;;;-73
2022/05/14 14:03:59;;;;;;;;;;;;;;;27.45;29.0791;102233.3;;;;-73
2022/05/14 14:08:57;;;;;;;;;;;;;;;27.23;29.24023;102229.4;;;;-72
2022/05/14 14:13:57;;;;;;;;;;;;;;;27.21;29.39063;102218;;;;-70
2022/05/14 14:18:57;;;;;;;;;;;;;;;27.08;29.68555;102222.4;;;;-74
2022/05/14 14:23:58;;;;;;;;;;;;;;;27.13;29.47852;102219.5;;;;-75
2022/05/14 14:25:12;;;;;;;11.6;2.6;;;;;;;;;;;;;-74
2022/05/14 14:28:59;;;;;;;;;;;;;;;26.97;29.67773;102221.8;;;;-72
2022/05/14 14:33:57;;;;;;;;;;;;;;;26.97;29.38672;102221.6;;;;-72
2022/05/14 14:38:57;;;;;;;;;;;;;;;27.01;29.31934;102220.7;;;;-72
2022/05/14 14:43:57;;;;;;;;;;;;;;;27.03;28.9707;102223.8;;;;-72
2022/05/14 14:48:57;;;;;;;;;;;;;;;26.89;29.00781;102218.6;;;;-73
2022/05/14 14:53:56;;;;;;;;;;;;;;;26.86;28.93555;102211.8;;;;-74
2022/05/14 14:55:15;;;;;;;10.1;2.4;;;;;;;;;;;;;-73
2022/05/14 14:58:57;;;;;;;;;;;;;;;26.72;29.35938;102212;;;;-75
2022/05/14 15:04:00;;;;;;;;;;;;;;;26.7;29.24023;102204.5;;;;-73
2022/05/14 15:08:57;;;;;;;;;;;;;;;26.63;29.28223;102209.9;;;;-73
2022/05/14 15:13:59;;;;;;;;;;;;;;;26.49;29.14648;102212.2;;;;-73
2022/05/14 15:18:57;;;;;;;;;;;;;;;26.31;29.64551;102207.7;;;;-74
2022/05/14 15:23:57;;;;;;;;;;;;;;;26.22;29.7334;102204.7;;;;-73
2022/05/14 15:25:19;;;;;;;9.6;2.4;;;;;;;;;;;;;-73
2022/05/14 15:28:57;;;;;;;;;;;;;;;26.06;29.81543;102206.2;;;;-74
2022/05/14 15:33:57;;;;;;;;;;;;;;;26.18;29.75391;102201.2;;;;-73
2022/05/14 15:38:57;;;;;;;;;;;;;;;26.09;29.8291;102207.6;;;;-72
2022/05/14 15:43:57;;;;;;;;;;;;;;;25.93;29.99316;102204.2;;;;-73
2022/05/14 15:48:58;;;;;;;;;;;;;;;25.87;29.89648;102203.9;;;;-74
2022/05/14 15:53:57;;;;;;;;;;;;;;;25.82;30.0791;102203.6;;;;-73
2022/05/14 15:55:24;;;;;;;10.7;2.9;;;;;;;;;;;;;-73
2022/05/14 15:58:58;;;;;;;;;;;;;;;25.69;29.82617;102205.4;;;;-73
2022/05/14 16:03:57;;;;;;;;;;;;;;;25.52;29.78027;102204.7;;;;-74
2022/05/14 16:08:57;;;;;;;;;;;;;;;25.48;30.26563;102201.2;;;;-74
2022/05/14 16:18:57;;;;;;;;;;;;;;;25.25;30.7373;102203.5;;;;-72
2022/05/14 16:23:57;;;;;;;;;;;;;;;25.25;30.88867;102198.6;;;;-74
2022/05/14 16:25:26;;;;;;;10.2;2.4;;;;;;;;;;;;;-72
2022/05/14 16:28:57;;;;;;;;;;;;;;;25.09;30.90039;102197;;;;-72
2022/05/14 16:33:57;;;;;;;;;;;;;;;24.94;31.18066;102193.8;;;;-73
2022/05/14 16:38:57;;;;;;;;;;;;;;;24.78;31.70215;102196.3;;;;-74
2022/05/14 16:43:57;;;;;;;;;;;;;;;24.61;32.1416;102205.6;;;;-74
2022/05/14 16:48:57;;;;;;;;;;;;;;;24.39;32.52051;102203.8;;;;-73
2022/05/14 16:53:58;;;;;;;;;;;;;;;24.39;32.26563;102198.7;;;;-72
2022/05/14 16:55:30;;;;;;;13.1;3.1;;;;;;;;;;;;;-72
2022/05/14 16:58:57;;;;;;;;;;;;;;;24.26;32.70801;102197.8;;;;-73
2022/05/14 17:03:57;;;;;;;;;;;;;;;24.19;32.72559;102192.2;;;;-72
2022/05/14 17:08:58;;;;;;;;;;;;;;;24.13;33.62402;102193.3;;;;-73
2022/05/14 17:13:57;;;;;;;;;;;;;;;24.64;33.09473;102191.7;;;;-77
2022/05/14 17:18:57;;;;;;;;;;;;;;;25.05;32.70703;102197.3;;;;-78
2022/05/14 17:23:57;;;;;;;;;;;;;;;25.18;32.72852;102195.7;;;;-78
2022/05/14 17:25:33;;;;;;;11.1;3.1;;;;;;;;;;;;;-80
2022/05/14 17:28:58;;;;;;;;;;;;;;;25.19;32.9375;102196.5;;;;-78
2022/05/14 17:34:00;;;;;;;;;;;;;;;25.09;33.52148;102195.3;;;;-77
2022/05/14 17:43:59;;;;;;;;;;;;;;;24.91;34.35449;102202.3;;;;-79
2022/05/14 17:49:01;;;;;;;;;;;;;;;24.75;34.52832;102198.3;;;;-79
2022/05/14 17:53:58;;;;;;;;;;;;;;;24.57;34.79199;102197.3;;;;-79
2022/05/14 17:55:37;;;;;;;12.9;4.2;;;;;;;;;;;;;-78
2022/05/14 17:58:57;;;;;;;;;;;;;;;24.37;35.04199;102196.5;;;;-71
2022/05/14 18:04:03;;;;;;;;;;;;;;;23.06;37.38477;102200.1;;;;-74
2022/05/14 18:08:57;;;;;;;;;;;;;;;23.17;37.09473;102196.3;;;;-79
2022/05/14 18:13:59;;;;;;;;;;;;;;;23.32;36.99219;102199.2;;;;-78
2022/05/14 18:18:57;;;;;;;;;;;;;;;23.29;36.97754;102201;;;;-77
2022/05/14 18:23:57;;;;;;;;;;;;;;;23.14;36.57324;102195.6;;;;-78
2022/05/14 18:25:51;;;;;;;17.3;7.4;;;;;;;;;;;;;-77
2022/05/14 18:28:59;;;;;;;;;;;;;;;22.98;36.54883;102203.6;;;;-79
2022/05/14 18:34:01;;;;;;;;;;;;;;;22.78;36.5791;102201.1;;;;-79
2022/05/14 18:38:58;;;;;;;;;;;;;;;22.54;36.58203;102206.5;;;;-77
2022/05/14 18:43:59;;;;;;;;;;;;;;;22.29;36.67676;102206.1;;;;-80
2022/05/14 18:48:57;;;;;;;;;;;;;;;22.05;36.58691;102205.8;;;;-78
2022/05/14 18:54:00;;;;;;;;;;;;;;;21.82;36.62598;102215.1;;;;-78
2022/05/14 18:55:44;;;;;;;18.3;7.1;;;;;;;;;;;;;-79
2022/05/14 18:58:57;;;;;;;;;;;;;;;21.56;36.83496;102219.5;;;;-80
2022/05/14 19:09:02;;;;;;;;;;;;;;;21.01;37.13477;102215.1;;;;-78
2022/05/14 19:13:57;;;;;;;;;;;;;;;20.74;37.61523;102213;;;;-80
2022/05/14 19:18:57;;;;;;;;;;;;;;;20.46;37.68457;102212.4;;;;-80
2022/05/14 19:23:59;;;;;;;;;;;;;;;20.16;38.04688;102215.2;;;;-79
2022/05/14 19:25:53;;;;;;;18.9;8.1;;;;;;;;;;;;;-81
2022/05/14 19:29:09;;;;;;;;;;;;;;;19.87;38.37793;102220.3;;;;-78
2022/05/14 19:33:57;;;;;;;;;;;;;;;19.56;38.75098;102218;;;;-79
2022/05/14 19:38:58;;;;;;;;;;;;;;;19.34;39.07422;102222.3;;;;-79
2022/05/14 19:44:00;;;;;;;;;;;;;;;19.1;39.55566;102224.3;;;;-79
2022/05/14 19:48:57;;;;;;;;;;;;;;;18.84;39.88672;102230.3;;;;-77
2022/05/14 19:53:57;;;;;;;;;;;;;;;18.58;40.31934;102234.9;;;;-79
2022/05/14 19:55:50;;;;;;;19.3;8.4;;;;;;;;;;;;;-80
2022/05/14 19:58:57;;;;;;;;;;;;;;;18.37;40.80273;102243;;;;-77
2022/05/14 20:03:57;;;;;;;;;;;;;;;18.16;41.10059;102242.3;;;;-80
2022/05/14 20:09:00;;;;;;;;;;;;;;;17.97;41.36816;102244.6;;;;-78
2022/05/14 20:13:59;;;;;;;;;;;;;;;17.78;41.6123;102250.6;;;;-79
2022/05/14 20:24:03;;;;;;;;;;;;;;;17.39;42.37109;102249.3;;;;-77
2022/05/14 20:25:52;;;;;;;26;9.9;;;;;;;;;;;;;-79
2022/05/14 20:28:57;;;;;;;;;;;;;;;17.22;42.52637;102254.7;;;;-79
2022/05/14 20:33:57;;;;;;;;;;;;;;;17.04;42.96191;102247.9;;;;-78
2022/05/14 20:38:57;;;;;;;;;;;;;;;16.87;43.22852;102248.9;;;;-81
2022/05/14 20:43:57;;;;;;;;;;;;;;;16.71;43.54395;102248.3;;;;-76
2022/05/14 20:48:57;;;;;;;;;;;;;;;16.55;43.84473;102246.7;;;;-78
2022/05/14 20:53:58;;;;;;;;;;;;;;;16.41;44.09082;102249.7;;;;-77
2022/05/14 20:55:54;;;;;;;39.1;12;;;;;;;;;;;;;-77
2022/05/14 20:58:57;;;;;;;;;;;;;;;16.24;44.15332;102253.6;;;;-77
2022/05/14 21:03:58;;;;;;;;;;;;;;;16.11;44.59473;102252;;;;-76
2022/05/14 21:08:57;;;;;;;;;;;;;;;15.96;44.74902;102252.4;;;;-77
2022/05/14 21:13:56;;;;;;;;;;;;;;;15.83;44.93945;102261.3;;;;-75
2022/05/14 21:18:56;;;;;;;;;;;;;;;15.7;45.06152;102257.6;;;;-78
2022/05/14 21:23:57;;;;;;;;;;;;;;;15.57;45.50098;102259.8;;;;-76
2022/05/14 21:25:57;;;;;;;27.8;9.7;;;;;;;;;;;;;-76
2022/05/14 21:29:01;;;;;;;;;;;;;;;15.45;45.43262;102258.2;;;;-76
2022/05/14 21:38:57;;;;;;;;;;;;;;;15.22;45.66797;102258.9;;;;-77
2022/05/14 21:44:00;;;;;;;;;;;;;;;15.08;45.94824;102258.7;;;;-77
2022/05/14 21:48:57;;;;;;;;;;;;;;;14.96;46.08203;102256.3;;;;-75
2022/05/14 21:53:57;;;;;;;;;;;;;;;14.85;46.26172;102263;;;;-76
2022/05/14 21:55:58;;;;;;;23.5;7.5;;;;;;;;;;;;;-76
2022/05/14 21:58:57;;;;;;;;;;;;;;;14.75;46.67871;102260.6;;;;-77
2022/05/14 22:04:08;;;;;;;;;;;;;;;14.67;46.68262;102253;;;;-77
2022/05/14 22:08:57;;;;;;;;;;;;;;;14.57;46.70605;102249.1;;;;-76
2022/05/14 22:13:57;;;;;;;;;;;;;;;14.45;47.24609;102249.3;;;;-76
2022/05/14 22:18:57;;;;;;;;;;;;;;;14.38;47.23828;102250.7;;;;-76
2022/05/14 22:24:09;;;;;;;;;;;;;;;14.3;47.28516;102250.3;;;;-81
2022/05/14 22:26:00;;;;;;;21.4;6.4;;;;;;;;;;;;;-82
2022/05/14 22:29:00;;;;;;;;;;;;;;;14.19;47.5791;102250.5;;;;-82
2022/05/14 22:33:58;;;;;;;;;;;;;;;14.15;47.47266;102247.6;;;;-81
2022/05/14 22:38:57;;;;;;;;;;;;;;;14.03;47.80859;102245.7;;;;-82
2022/05/14 22:43:57;;;;;;;;;;;;;;;13.98;47.74609;102241.2;;;;-83
2022/05/14 22:48:57;;;;;;;;;;;;;;;13.91;47.875;102244.4;;;;-81
2022/05/14 22:53:58;;;;;;;;;;;;;;;13.84;47.87793;102244.5;;;;-83
2022/05/14 22:56:01;;;;;;;17.2;5.6;;;;;;;;;;;;;-83
2022/05/14 22:58:57;;;;;;;;;;;;;;;13.73;47.91113;102247.4;;;;-83
2022/05/14 23:03:57;;;;;;;;;;;;;;;13.65;48.22852;102244.3;;;;-82
2022/05/14 23:08:58;;;;;;;;;;;;;;;13.61;48.28125;102243.6;;;;-82
2022/05/14 23:13:58;;;;;;;;;;;;;;;13.53;48.30566;102244.4;;;;-81
2022/05/14 23:18:57;;;;;;;;;;;;;;;13.49;48.51465;102240.9;;;;-82
2022/05/14 23:23:56;;;;;;;;;;;;;;;13.4;48.39258;102243;;;;-83
2022/05/14 23:26:03;;;;;;;11.7;4.6;;;;;;;;;;;;;-81
2022/05/14 23:28:57;;;;;;;;;;;;;;;13.35;48.4541;102246.9;;;;-84
2022/05/14 23:33:57;;;;;;;;;;;;;;;13.29;48.48145;102247.1;;;;-82
2022/05/14 23:38:58;;;;;;;;;;;;;;;13.29;48.67285;102249.5;;;;-81
2022/05/14 23:43:57;;;;;;;;;;;;;;;13.27;48.49121;102245.2;;;;-82
2022/05/14 23:48:59;;;;;;;;;;;;;;;13.23;48.63184;102239.7;;;;-82
2022/05/14 23:53:57;;;;;;;;;;;;;;;13.22;48.62012;102232.9;;;;-81
2022/05/14 23:56:04;;;;;;;13.2;3.8;;;;;;;;;;;;;-84
